Time;durP1;ratioP1;P1;durP2;ratioP2;P2;SDS_P1;SDS_P2;PMS_P1;PMS_P2;Temp;Humidity;BMP_temperature;BMP_pressure;BME280_temperature;BME280_humidity;BME280_pressure;Samples;Min_cycle;Max_cycle;Signal;HPM_P1;HPM_P2
2021/05/20 00:01:53;;;;;;;2.80;1.45;;;;;;;28.68;22.03;97863.38;5091496;28;20036;-90
2021/05/20 00:04:22;;;;;;;3.75;1.65;;;;;;;28.87;21.90;97862.09;5091735;28;20036;-90
2021/05/20 00:06:48;;;;;;;2.25;1.52;;;;;;;29.02;21.51;97865.88;5088976;28;20024;-90
2021/05/20 00:09:14;;;;;;;3.92;2.40;;;;;;;29.02;21.75;97871.53;5087229;28;20546;-90
2021/05/20 00:11:40;;;;;;;4.18;2.53;;;;;;;28.73;22.29;97868.38;5090476;28;20453;-90
2021/05/20 00:14:06;;;;;;;4.60;2.22;;;;;;;28.41;22.65;97866.94;5091413;28;20540;-90
2021/05/20 00:16:32;;;;;;;2.42;1.65;;;;;;;28.29;22.73;97859.38;5085163;28;20034;-90
2021/05/20 00:18:58;;;;;;;3.78;2.35;;;;;;;28.29;22.92;97867.06;5086613;28;20124;-90
2021/05/20 00:21:24;;;;;;;4.80;1.95;;;;;;;28.27;22.91;97863.91;5089306;28;20035;-90
2021/05/20 00:23:50;;;;;;;3.88;1.90;;;;;;;28.36;22.47;97864.72;5090340;28;20024;-90
2021/05/20 00:26:16;;;;;;;2.20;1.65;;;;;;;28.47;21.90;97861.47;5090751;28;20032;-91
2021/05/20 00:28:42;;;;;;;2.47;1.42;;;;;;;28.03;22.14;97864.50;5090292;28;20391;-90
2021/05/20 00:31:09;;;;;;;2.47;1.30;;;;;;;28.12;22.42;97860.94;5090161;28;20036;-89
2021/05/20 00:33:35;;;;;;;1.65;1.15;;;;;;;28.34;21.65;97863.63;5089166;28;20040;-90
2021/05/20 00:36:02;;;;;;;3.05;2.25;;;;;;;28.39;21.73;97863.78;5085149;28;20036;-90
2021/05/20 00:38:28;;;;;;;1.52;1.10;;;;;;;28.54;21.40;97867.56;5083230;28;20033;-90
2021/05/20 00:40:59;;;;;;;2.08;1.10;;;;;;;28.30;21.57;97875.06;5093619;28;20499;-90
2021/05/20 00:43:25;;;;;;;2.40;1.42;;;;;;;28.10;21.89;97871.88;5093831;28;20044;-90
2021/05/20 00:45:51;;;;;;;2.15;1.52;;;;;;;28.21;21.84;97880.72;5094298;28;20085;-90
2021/05/20 00:48:18;;;;;;;1.92;1.30;;;;;;;27.87;22.30;97887.31;5094743;28;20043;-90
2021/05/20 00:50:44;;;;;;;2.15;1.45;;;;;;;28.14;22.15;97886.66;5094487;28;20484;-90
2021/05/20 00:53:15;;;;;;;3.00;1.63;;;;;;;28.40;22.08;97887.94;5094154;28;20040;-90
2021/05/20 00:55:41;;;;;;;5.90;1.88;;;;;;;28.31;22.12;97881.50;5087013;28;20047;-90
2021/05/20 00:58:08;;;;;;;3.28;1.25;;;;;;;28.25;22.67;97886.19;5092555;28;20042;-90
2021/05/20 01:00:35;;;;;;;3.17;1.80;;;;;;;28.36;22.30;97884.50;5092321;28;20095;-90
2021/05/20 01:03:01;;;;;;;3.80;1.83;;;;;;;28.26;22.54;97885.75;5097828;28;20051;-90
2021/05/20 01:05:27;;;;;;;3.72;2.10;;;;;;;28.31;22.32;97878.69;5095802;28;20113;-90
2021/05/20 01:07:54;;;;;;;2.58;1.38;;;;;;;28.38;22.38;97881.22;5091624;28;20036;-90
2021/05/20 01:10:21;;;;;;;4.00;1.95;;;;;;;28.58;22.24;97890.81;5096472;28;20027;-91
2021/05/20 01:12:47;;;;;;;2.95;1.73;;;;;;;28.57;22.21;97882.78;5096417;28;20020;-91
2021/05/20 01:15:22;;;;;;;3.22;2.00;;;;;;;28.36;22.51;97892.97;5094683;28;20047;-90
2021/05/20 01:17:51;;;;;;;3.80;1.85;;;;;;;28.08;22.88;97884.91;5092703;28;20398;-90
2021/05/20 01:20:19;;;;;;;3.30;1.60;;;;;;;28.11;22.68;97889.59;5095320;28;20040;-90
2021/05/20 01:22:45;;;;;;;3.28;1.50;;;;;;;28.33;22.09;97890.31;5077150;28;20039;-90
2021/05/20 01:25:11;;;;;;;3.22;1.55;;;;;;;28.57;22.02;97880.75;5090376;28;20068;-90
2021/05/20 01:27:40;;;;;;;4.15;1.55;;;;;;;28.78;21.78;97881.88;5094278;28;20081;-90
2021/05/20 01:30:07;;;;;;;2.60;1.63;;;;;;;28.81;21.57;97880.16;5091784;28;20024;-90
2021/05/20 01:32:33;;;;;;;1.58;1.13;;;;;;;28.61;21.38;97883.47;5091783;28;20032;-91
2021/05/20 01:34:59;;;;;;;1.60;1.20;;;;;;;28.55;21.52;97883.25;5093599;28;20040;-90
2021/05/20 01:37:25;;;;;;;1.83;1.27;;;;;;;28.68;21.37;97883.94;5092768;28;20519;-90
2021/05/20 01:39:51;;;;;;;2.75;1.45;;;;;;;28.80;21.39;97887.84;5092329;28;20040;-90
2021/05/20 01:42:17;;;;;;;3.17;1.83;;;;;;;28.44;21.69;97882.94;5088799;28;20020;-90
2021/05/20 01:44:43;;;;;;;2.97;1.40;;;;;;;28.48;21.99;97882.78;5094085;28;20036;-90
2021/05/20 01:47:09;;;;;;;3.10;1.58;;;;;;;28.53;21.53;97885.78;5092723;28;20142;-90
2021/05/20 01:49:35;;;;;;;2.95;1.67;;;;;;;28.61;21.69;97886.28;5092868;28;20056;-91
2021/05/20 01:52:01;;;;;;;2.05;1.45;;;;;;;28.57;21.79;97888.44;5091828;28;20032;-90
2021/05/20 01:54:28;;;;;;;1.95;1.10;;;;;;;28.45;21.83;97884.50;5092697;28;20040;-90
2021/05/20 01:56:54;;;;;;;2.15;1.17;;;;;;;28.43;21.72;97883.41;5092945;28;20028;-90
2021/05/20 01:59:20;;;;;;;2.50;1.30;;;;;;;28.51;21.58;97885.47;5092129;28;20039;-90
2021/05/20 02:01:46;;;;;;;1.45;1.17;;;;;;;28.56;21.66;97878.41;5093257;28;20104;-90
2021/05/20 02:04:12;;;;;;;4.03;1.52;;;;;;;28.44;21.44;97882.94;5092359;28;20185;-91
2021/05/20 02:06:38;;;;;;;2.65;1.50;;;;;;;28.22;21.81;97876.63;5091970;28;20391;-90
2021/05/20 02:09:06;;;;;;;3.00;1.13;;;;;;;28.20;21.71;97881.16;5092560;28;20039;-90
2021/05/20 02:11:32;;;;;;;2.15;1.08;;;;;;;28.08;21.84;97884.91;5093967;28;20043;-90
2021/05/20 02:13:58;;;;;;;1.77;1.17;;;;;;;28.25;21.07;97883.38;5092727;28;20032;-90
2021/05/20 02:16:24;;;;;;;1.35;1.25;;;;;;;28.29;21.11;97884.00;5079533;28;20034;-90
2021/05/20 02:18:51;;;;;;;2.95;1.30;;;;;;;28.33;20.91;97891.09;5092946;28;20032;-90
2021/05/20 02:21:17;;;;;;;2.78;1.10;;;;;;;28.30;20.94;97891.22;5091402;28;20089;-90
2021/05/20 02:23:43;;;;;;;2.30;1.20;;;;;;;28.21;20.99;97892.00;5092332;28;20108;-90
2021/05/20 02:26:10;;;;;;;2.53;1.48;;;;;;;28.16;20.87;97886.97;5092887;28;20036;-89
2021/05/20 02:28:36;;;;;;;1.77;1.05;;;;;;;28.25;20.96;97891.84;5092974;28;20036;-90
2021/05/20 02:31:02;;;;;;;2.35;1.20;;;;;;;28.21;20.79;97894.81;5092512;28;20495;-90
2021/05/20 02:33:28;;;;;;;3.22;1.38;;;;;;;28.23;20.81;97897.16;5091525;28;20191;-90
2021/05/20 02:35:54;;;;;;;2.97;1.35;;;;;;;28.31;20.58;97898.47;5092161;28;20377;-90
2021/05/20 02:38:20;;;;;;;1.42;1.00;;;;;;;28.30;20.71;97896.88;5092457;28;20406;-90
2021/05/20 02:40:46;;;;;;;3.40;1.20;;;;;;;28.35;20.58;97896.25;5091916;28;20447;-90
2021/05/20 02:43:13;;;;;;;4.20;1.40;;;;;;;28.00;20.78;97901.34;5092809;28;20028;-91
2021/05/20 02:45:39;;;;;;;2.03;1.20;;;;;;;27.23;20.94;97899.47;5092654;28;20039;-90
2021/05/20 02:48:05;;;;;;;2.67;1.58;;;;;;;27.16;21.40;97906.19;5088164;28;20040;-90
2021/05/20 02:50:31;;;;;;;1.58;1.17;;;;;;;27.15;21.37;97909.44;5091482;28;20085;-90
2021/05/20 02:52:57;;;;;;;2.65;1.25;;;;;;;27.15;21.83;97907.41;5091726;28;20036;-90
2021/05/20 02:55:25;;;;;;;2.78;1.35;;;;;;;27.13;21.95;97909.13;5092625;28;20082;-90
2021/05/20 02:57:54;;;;;;;1.35;1.20;;;;;;;27.37;21.62;97908.22;5092411;28;20032;-90
2021/05/20 03:00:21;;;;;;;2.03;1.23;;;;;;;27.14;20.59;97910.69;5090147;28;20043;-90
2021/05/20 03:02:48;;;;;;;2.47;1.05;;;;;;;26.87;21.70;97916.91;5088586;28;20032;-90
2021/05/20 03:05:16;;;;;;;1.23;0.90;;;;;;;27.08;21.38;97918.94;5090353;28;20047;-90
2021/05/20 03:07:42;;;;;;;4.30;1.52;;;;;;;27.02;21.92;97923.63;5090380;28;20035;-90
2021/05/20 03:10:08;;;;;;;3.28;1.75;;;;;;;26.89;22.38;97922.06;5091894;28;20028;-90
2021/05/20 03:12:34;;;;;;;3.25;1.65;;;;;;;26.97;22.60;97927.00;5092115;28;20081;-90
2021/05/20 03:15:01;;;;;;;2.03;1.20;;;;;;;27.02;22.71;97923.63;5088885;28;20135;-90
2021/05/20 03:17:27;;;;;;;2.47;1.55;;;;;;;27.12;22.06;97927.28;5089878;28;20406;-90
2021/05/20 03:19:53;;;;;;;1.85;1.30;;;;;;;27.07;21.42;97925.06;5091278;28;20024;-90
2021/05/20 03:22:21;;;;;;;1.40;1.05;;;;;;;27.20;21.58;97922.94;5090813;28;20109;-90
2021/05/20 03:24:50;;;;;;;3.75;1.52;;;;;;;27.23;21.03;97931.28;5091769;28;20036;-90
2021/05/20 03:27:20;;;;;;;1.17;1.08;;;;;;;27.23;21.18;97933.31;5089825;28;20032;-89
2021/05/20 03:29:46;;;;;;;2.13;1.33;;;;;;;27.56;21.00;97928.06;5085212;28;20480;-90
2021/05/20 03:32:12;;;;;;;1.98;1.50;;;;;;;27.74;21.03;97939.44;5089848;28;20470;-90
2021/05/20 03:34:39;;;;;;;1.35;1.10;;;;;;;27.87;20.78;97931.66;5091355;28;20036;-89
2021/05/20 03:37:05;;;;;;;1.75;1.10;;;;;;;27.96;21.30;97932.50;5091078;28;20105;-89
2021/05/20 03:39:32;;;;;;;5.00;2.25;;;;;;;27.80;22.27;97932.72;5086026;28;20043;-90
2021/05/20 03:41:58;;;;;;;4.20;1.80;;;;;;;27.44;23.02;97932.53;5086841;28;20035;-90
2021/05/20 03:44:24;;;;;;;4.13;1.90;;;;;;;27.13;23.32;97945.75;5086623;28;20044;-90
2021/05/20 03:46:50;;;;;;;4.68;2.03;;;;;;;27.11;23.50;97946.22;5082619;28;20047;-89
2021/05/20 03:49:17;;;;;;;2.45;1.65;;;;;;;27.50;23.07;97936.34;5091388;28;20058;-89
2021/05/20 03:51:43;;;;;;;3.42;1.73;;;;;;;27.96;22.55;97946.59;5091219;28;20024;-90
2021/05/20 03:54:09;;;;;;;3.83;2.05;;;;;;;28.10;22.34;97936.81;5088812;28;20044;-90
2021/05/20 03:56:35;;;;;;;3.40;2.05;;;;;;;27.92;22.92;97950.81;5086476;28;20033;-90
2021/05/20 03:59:01;;;;;;;2.88;2.05;;;;;;;27.72;23.15;97951.19;5086282;28;20028;-90
2021/05/20 04:01:27;;;;;;;3.90;2.22;;;;;;;27.58;23.39;97948.94;5092567;28;20032;-90
2021/05/20 04:03:53;;;;;;;2.78;1.77;;;;;;;27.51;23.50;97952.03;5089568;28;20032;-90
2021/05/20 04:06:19;;;;;;;3.53;2.40;;;;;;;27.02;24.29;97953.81;5084630;28;20064;-90
2021/05/20 04:08:45;;;;;;;3.83;2.53;;;;;;;27.04;24.37;97949.28;5089538;28;20500;-90
2021/05/20 04:11:12;;;;;;;4.65;2.22;;;;;;;27.26;23.86;97952.91;5091061;28;20077;-89
2021/05/20 04:13:40;;;;;;;3.75;1.85;;;;;;;27.29;24.27;97954.03;5089754;28;20113;-90
2021/05/20 04:16:07;;;;;;;2.53;2.10;;;;;;;27.77;23.61;97952.63;5092544;28;20115;-91
2021/05/20 04:18:34;;;;;;;3.83;2.03;;;;;;;28.11;23.00;97951.72;5095050;28;20444;-89
2021/05/20 04:21:01;;;;;;;4.40;2.80;;;;;;;27.96;23.42;97951.44;5087139;28;20039;-90
2021/05/20 04:23:28;;;;;;;4.43;2.17;;;;;;;28.02;23.34;97963.75;5099229;28;20043;-90
2021/05/20 04:25:54;;;;;;;2.58;1.80;;;;;;;28.32;23.21;97964.97;5092962;28;20460;-89
2021/05/20 04:28:20;;;;;;;4.05;2.67;;;;;;;28.26;23.19;97966.84;5093059;28;20464;-88
2021/05/20 04:30:47;;;;;;;4.90;2.45;;;;;;;28.28;23.16;97970.78;5092149;28;20113;-89
2021/05/20 04:33:13;;;;;;;3.22;2.08;;;;;;;28.64;22.73;97979.38;5093957;28;20036;-89
2021/05/20 04:35:39;;;;;;;2.60;1.73;;;;;;;28.80;22.89;97972.63;5092375;28;20415;-89
2021/05/20 04:38:07;;;;;;;4.93;2.28;;;;;;;28.74;22.69;97983.00;5093551;28;20089;-89
2021/05/20 04:40:34;;;;;;;3.58;2.38;;;;;;;28.22;23.39;97981.09;5088464;28;20510;-89
2021/05/20 04:43:00;;;;;;;9.75;4.35;;;;;;;28.27;23.56;97965.56;5094606;28;20452;-89
2021/05/20 04:45:27;;;;;;;7.70;3.17;;;;;;;28.11;23.43;97979.94;5090707;28;20032;-89
2021/05/20 04:47:53;;;;;;;9.85;3.55;;;;;;;27.79;23.68;97987.59;5093743;28;20081;-89
2021/05/20 04:50:19;;;;;;;4.28;2.85;;;;;;;27.64;24.07;97982.94;5092255;28;20031;-89
2021/05/20 04:52:46;;;;;;;5.50;2.75;;;;;;;27.48;24.00;97992.41;5094321;28;20086;-90
2021/05/20 04:55:14;;;;;;;4.38;2.90;;;;;;;27.63;24.29;97984.22;5092777;28;20107;-91
2021/05/20 04:57:40;;;;;;;4.32;2.47;;;;;;;27.90;24.17;97992.81;5085876;28;20040;-93
2021/05/20 05:00:08;;;;;;;3.08;2.05;;;;;;;28.31;23.74;97989.59;5093482;28;20032;-89
2021/05/20 05:02:35;;;;;;;8.77;3.25;;;;;;;28.88;22.87;97993.69;5094091;28;20036;-90
2021/05/20 05:05:02;;;;;;;8.95;3.30;;;;;;;28.92;23.18;97991.50;5093444;28;20055;-92
2021/05/20 05:07:28;;;;;;;5.63;3.35;;;;;;;28.45;23.20;97994.66;5092781;28;20482;-92
2021/05/20 05:09:54;;;;;;;5.10;2.72;;;;;;;28.06;23.74;97995.44;5093405;28;20047;-94
2021/05/20 05:12:20;;;;;;;6.25;3.63;;;;;;;27.49;24.42;98005.28;5089559;28;20491;-92
2021/05/20 05:14:47;;;;;;;7.07;3.95;;;;;;;27.59;24.45;97998.44;5090553;28;20021;-92
2021/05/20 05:17:13;;;;;;;4.88;2.80;;;;;;;27.65;25.03;97999.44;5093355;28;20127;-96
2021/05/20 05:19:39;;;;;;;3.80;2.75;;;;;;;27.15;24.70;97997.63;5097610;28;20028;-96
2021/05/20 05:22:06;;;;;;;4.55;2.85;;;;;;;27.16;25.01;98002.03;5097212;28;20047;-96
2021/05/20 05:24:32;;;;;;;5.57;3.53;;;;;;;27.24;24.84;98002.53;5094406;28;20047;-96
2021/05/20 05:26:59;;;;;;;4.50;3.17;;;;;;;26.77;25.49;98008.19;5091690;28;20541;-96
2021/05/20 05:29:26;;;;;;;6.43;4.15;;;;;;;27.02;25.00;98001.72;5095614;28;20510;-94
2021/05/20 05:31:52;;;;;;;5.50;2.67;;;;;;;27.30;25.03;97998.69;5092648;28;20032;-95
2021/05/20 05:34:19;;;;;;;4.97;3.55;;;;;;;27.24;25.21;98000.50;5086425;28;20032;-95
2021/05/20 05:36:45;;;;;;;8.55;4.28;;;;;;;27.42;24.44;98007.56;5094240;28;20032;-94
2021/05/20 05:39:12;;;;;;;6.00;4.03;;;;;;;27.62;24.48;98002.38;5094062;28;20024;-92
2021/05/20 05:41:38;;;;;;;6.68;3.10;;;;;;;27.53;24.61;98003.09;5088802;28;20032;-91
2021/05/20 05:44:05;;;;;;;6.72;3.55;;;;;;;27.90;24.57;98001.28;5093460;28;20093;-94
2021/05/20 05:46:32;;;;;;;5.28;2.85;;;;;;;27.66;24.78;97997.38;5100942;28;20031;-94
2021/05/20 05:49:01;;;;;;;6.53;3.15;;;;;;;28.24;23.84;98004.00;5093364;28;20421;-94
2021/05/20 05:51:31;;;;;;;5.20;3.33;;;;;;;28.63;23.78;98002.44;5095218;28;20028;-94
2021/05/20 05:53:57;;;;;;;6.22;3.58;;;;;;;28.42;24.07;98000.47;5087983;28;20054;-95
2021/05/20 05:56:23;;;;;;;17.65;8.48;;;;;;;27.99;23.70;98002.16;5094549;28;20047;-94
2021/05/20 05:58:49;;;;;;;10.25;6.13;;;;;;;27.63;24.84;98015.25;5094257;28;20059;-96
2021/05/20 06:01:16;;;;;;;7.50;3.72;;;;;;;28.09;24.80;98008.63;5092645;28;20051;-95
2021/05/20 06:03:42;;;;;;;6.93;4.32;;;;;;;28.64;23.07;98006.81;5093448;28;20028;-95
2021/05/20 06:06:09;;;;;;;5.55;3.30;;;;;;;28.28;23.80;98013.13;5097539;28;20050;-96
2021/05/20 06:08:35;;;;;;;3.55;2.40;;;;;;;28.30;24.04;98015.47;5092959;28;20031;-95
2021/05/20 06:11:01;;;;;;;3.80;2.28;;;;;;;28.69;23.54;98015.47;5088883;28;20041;-95
2021/05/20 06:13:27;;;;;;;2.97;2.40;;;;;;;28.42;23.48;98014.59;5083725;28;20048;-95
2021/05/20 06:15:53;;;;;;;3.72;2.83;;;;;;;28.12;23.78;98021.03;5090976;28;20036;-94
2021/05/20 06:18:19;;;;;;;5.40;2.70;;;;;;;28.02;23.98;98021.00;5090983;28;20139;-95
2021/05/20 06:20:45;;;;;;;3.13;2.70;;;;;;;28.08;24.03;98023.22;5093532;28;20063;-95
2021/05/20 06:23:12;;;;;;;4.13;2.63;;;;;;;28.23;24.11;98021.41;5093650;28;20097;-96
2021/05/20 06:25:40;;;;;;;6.85;3.35;;;;;;;28.86;23.40;98018.81;5088774;28;20038;-95
2021/05/20 06:28:07;;;;;;;3.88;2.10;;;;;;;29.10;23.04;98022.59;5080331;28;20571;-96
2021/05/20 06:30:33;;;;;;;3.88;2.63;;;;;;;29.31;22.64;98027.38;5089171;28;20099;-96
2021/05/20 06:32:59;;;;;;;3.75;2.83;;;;;;;29.40;22.22;98024.56;5091518;28;20028;-95
2021/05/20 06:35:25;;;;;;;7.40;2.55;;;;;;;29.62;21.68;98017.91;5079242;28;20403;-95
2021/05/20 06:37:52;;;;;;;4.18;2.25;;;;;;;28.59;22.78;98022.34;5088460;28;20024;-95
2021/05/20 06:40:18;;;;;;;2.50;2.17;;;;;;;29.11;23.46;98020.56;5081851;28;20024;-96
2021/05/20 06:42:44;;;;;;;3.35;2.63;;;;;;;29.11;22.50;98020.56;5086337;28;20029;-95
2021/05/20 06:45:11;;;;;;;3.20;2.05;;;;;;;29.16;22.99;98017.91;5089947;28;20526;-95
2021/05/20 06:47:37;;;;;;;4.47;2.75;;;;;;;28.45;23.11;98013.66;5088956;28;20039;-96
2021/05/20 06:50:05;;;;;;;5.60;1.92;;;;;;;27.98;24.81;98014.66;5094887;28;20068;-95
2021/05/20 06:52:32;;;;;;;2.95;1.90;;;;;;;28.33;24.01;98009.69;5082019;28;20404;-96
2021/05/20 06:54:58;;;;;;;2.72;1.65;;;;;;;28.55;24.25;98009.59;5093582;28;20035;-96
2021/05/20 06:57:31;;;;;;;3.70;1.75;;;;;;;29.24;22.62;98012.78;5093298;28;20032;-96
2021/05/20 06:59:58;;;;;;;2.53;1.85;;;;;;;29.30;22.25;98008.03;5094802;28;20038;-96
2021/05/20 07:02:26;;;;;;;3.00;1.70;;;;;;;29.17;22.90;98018.72;5090756;28;20043;-96
2021/05/20 07:04:52;;;;;;;1.60;1.48;;;;;;;29.29;23.68;98014.97;5093620;28;20032;-96
2021/05/20 07:07:19;;;;;;;2.38;1.95;;;;;;;28.49;25.71;98023.56;5095550;28;20390;-96
2021/05/20 07:09:45;;;;;;;2.85;2.03;;;;;;;29.42;24.27;98012.75;5092665;28;20292;-96
2021/05/20 07:12:13;;;;;;;3.08;2.47;;;;;;;29.29;23.30;98012.91;5093422;28;20111;-96
2021/05/20 07:14:39;;;;;;;3.85;1.83;;;;;;;28.51;24.17;98012.59;5101352;28;20032;-96
2021/05/20 07:17:07;;;;;;;4.50;2.35;;;;;;;28.97;23.75;98005.00;5090665;28;20056;-96
2021/05/20 07:19:33;;;;;;;3.65;2.28;;;;;;;28.74;23.78;98014.88;5089694;28;20109;-96
2021/05/20 07:22:00;;;;;;;2.72;2.03;;;;;;;28.32;24.39;98015.78;5092916;28;20024;-96
2021/05/20 07:24:26;;;;;;;3.22;2.20;;;;;;;27.48;25.69;98026.25;5097607;28;20040;-96
2021/05/20 07:26:53;;;;;;;3.22;2.63;;;;;;;27.44;25.79;98033.28;5097060;28;20031;-96
2021/05/20 07:29:20;;;;;;;3.20;2.33;;;;;;;27.47;26.49;98030.31;5092209;28;20127;-96
2021/05/20 07:31:46;;;;;;;4.03;2.20;;;;;;;28.01;25.61;98021.44;5094181;28;20028;-96
2021/05/20 07:34:12;;;;;;;5.47;2.47;;;;;;;28.65;25.67;98025.38;5092455;28;20035;-96
2021/05/20 07:36:38;;;;;;;4.95;2.90;;;;;;;27.88;25.60;98032.81;5091142;28;20024;-95
2021/05/20 07:39:05;;;;;;;3.22;2.10;;;;;;;27.84;24.84;98025.72;5092443;28;20035;-96
2021/05/20 07:41:33;;;;;;;4.78;2.78;;;;;;;27.05;26.10;98040.28;5091691;28;20140;-96
2021/05/20 07:44:00;;;;;;;2.80;2.47;;;;;;;27.36;25.69;98038.34;5090296;28;20514;-96
2021/05/20 07:46:26;;;;;;;3.22;2.70;;;;;;;27.29;25.91;98041.41;5093362;28;20029;-95
2021/05/20 07:48:52;;;;;;;5.88;3.17;;;;;;;27.54;25.83;98046.97;5081069;28;20109;-96
2021/05/20 07:51:19;;;;;;;4.82;2.58;;;;;;;28.14;25.29;98041.13;5095258;28;20039;-96
2021/05/20 07:53:45;;;;;;;5.75;2.85;;;;;;;28.71;24.33;98034.78;5095557;28;20032;-96
2021/05/20 07:56:12;;;;;;;4.07;2.72;;;;;;;28.88;23.90;98035.31;5092772;28;20040;-96
2021/05/20 07:58:38;;;;;;;5.90;2.30;;;;;;;28.58;24.37;98042.56;5091141;28;20077;-96
2021/05/20 08:01:04;;;;;;;4.38;2.47;;;;;;;28.92;24.38;98038.75;5096568;28;20094;-96
2021/05/20 08:03:43;;;;;;;3.13;1.90;;;;;;;28.11;24.98;98033.56;5092170;28;20038;-95
2021/05/20 08:06:15;;;;;;;4.13;2.75;;;;;;;28.31;24.74;98042.47;5090272;28;20028;-96
2021/05/20 08:11:14;;;;;;;1.85;1.73;;;;;;;27.14;26.41;98031.91;5090764;28;20036;-95
2021/05/20 08:13:40;;;;;;;5.00;2.55;;;;;;;27.57;25.62;98043.25;5089392;28;20028;-94
2021/05/20 08:16:06;;;;;;;2.58;2.20;;;;;;;27.60;25.48;98041.53;5085486;28;20062;-95
2021/05/20 08:18:32;;;;;;;2.58;1.80;;;;;;;28.08;25.77;98040.94;5088075;28;20047;-96
2021/05/20 08:20:59;;;;;;;2.45;2.10;;;;;;;28.62;24.63;98043.25;5090853;28;20103;-96
2021/05/20 08:23:26;;;;;;;3.13;2.20;;;;;;;28.76;24.44;98037.00;5093720;28;20074;-95
2021/05/20 08:25:52;;;;;;;4.00;2.13;;;;;;;29.34;23.46;98037.75;5092937;28;20110;-96
2021/05/20 08:28:19;;;;;;;2.38;1.98;;;;;;;29.32;23.93;98040.25;5089350;28;20047;-95
2021/05/20 08:30:45;;;;;;;2.40;1.42;;;;;;;29.00;23.66;98052.16;5089891;28;20032;-95
2021/05/20 08:33:12;;;;;;;1.77;1.35;;;;;;;28.05;24.57;98048.28;5096960;28;20170;-96
2021/05/20 08:35:38;;;;;;;2.00;1.10;;;;;;;27.81;25.01;98046.41;5088338;28;20081;-96
2021/05/20 08:38:05;;;;;;;2.28;1.00;;;;;;;27.86;24.10;98054.28;5093501;28;20064;-96
2021/05/20 08:40:32;;;;;;;1.63;0.80;;;;;;;26.85;25.25;98045.38;5094408;28;20281;-96
2021/05/20 08:42:58;;;;;;;1.20;1.00;;;;;;;26.68;24.70;98044.69;5090567;28;20028;-96
2021/05/20 08:45:27;;;;;;;1.42;1.00;;;;;;;24.69;27.92;98043.16;5098345;28;20504;-96
2021/05/20 08:47:55;;;;;;;3.13;0.88;;;;;;;25.56;28.28;98046.91;5095873;28;20071;-96
2021/05/20 08:50:24;;;;;;;2.60;0.82;;;;;;;24.49;26.38;98052.91;5098357;28;20039;-96
2021/05/20 08:52:51;;;;;;;1.00;0.90;;;;;;;23.54;27.89;98050.19;5095767;28;20036;-96
2021/05/20 08:55:20;;;;;;;1.08;0.95;;;;;;;25.24;26.97;98041.38;5098137;28;20024;-96
2021/05/20 08:57:47;;;;;;;1.20;1.00;;;;;;;25.20;27.24;98052.72;5100022;28;20035;-96
2021/05/20 09:00:21;;;;;;;1.38;1.27;;;;;;;24.36;27.30;98046.41;5097860;28;20035;-96
2021/05/20 09:02:48;;;;;;;1.13;0.90;;;;;;;24.02;27.30;98049.53;5098393;28;20032;-96
2021/05/20 09:05:17;;;;;;;2.08;1.10;;;;;;;25.17;26.90;98050.78;5098886;28;20036;-96
2021/05/20 09:07:50;;;;;;;1.45;0.95;;;;;;;25.42;25.48;98038.84;5101480;28;20046;-96
2021/05/20 09:10:22;;;;;;;0.57;0.57;;;;;;;25.31;23.14;98032.75;5099795;28;20067;-96
2021/05/20 09:12:51;;;;;;;1.08;0.73;;;;;;;24.92;25.09;98038.63;5098320;28;20028;-96
2021/05/20 09:15:45;;;;;;;2.78;1.00;;;;;;;25.25;24.96;98026.09;5100747;28;20057;-96
2021/05/20 09:18:11;;;;;;;0.57;0.55;;;;;;;25.79;25.74;98048.69;5098117;28;20056;-96
2021/05/20 09:20:43;;;;;;;0.95;0.80;;;;;;;26.28;25.55;98055.63;5092763;28;20035;-95
2021/05/20 09:23:12;;;;;;;2.38;0.80;;;;;;;26.59;24.87;98039.75;5093789;28;20047;-95
2021/05/20 09:25:41;;;;;;;1.38;0.80;;;;;;;27.26;24.23;98050.78;5095583;28;20047;-96
2021/05/20 09:28:09;;;;;;;0.77;0.65;;;;;;;28.57;22.66;98043.81;5094148;28;20040;-96
2021/05/20 09:30:37;;;;;;;1.92;0.63;;;;;;;28.68;21.66;98058.34;5092057;28;20036;-89
2021/05/20 09:33:08;;;;;;;0.52;0.52;;;;;;;28.57;21.68;98049.47;5097742;28;20442;-96
2021/05/20 09:35:37;;;;;;;0.90;0.45;;;;;;;28.57;21.82;98055.13;5094528;28;20115;-96
2021/05/20 09:38:07;;;;;;;2.05;0.50;;;;;;;27.65;22.78;98047.38;5095082;28;20023;-95
2021/05/20 09:40:40;;;;;;;0.52;0.43;;;;;;;27.51;22.83;98056.38;5093974;28;20059;-96
2021/05/20 09:43:21;;;;;;;0.95;0.50;;;;;;;26.20;23.39;98053.50;5097313;28;20043;-96
2021/05/20 09:45:50;;;;;;;0.70;0.70;;;;;;;26.67;23.81;98051.59;5094712;28;20478;-96
2021/05/20 09:48:17;;;;;;;0.57;0.55;;;;;;;27.36;22.69;98056.06;5092417;28;20032;-96
2021/05/20 09:50:48;;;;;;;0.68;0.50;;;;;;;26.50;22.89;98061.38;5096397;28;20046;-96
2021/05/20 09:53:20;;;;;;;2.85;0.47;;;;;;;27.06;22.91;98047.47;5095069;28;20032;-96
2021/05/20 09:56:01;;;;;;;2.05;0.52;;;;;;;27.49;21.55;98044.75;5090309;28;20517;-96
2021/05/20 09:58:32;;;;;;;0.40;0.40;;;;;;;27.42;22.32;98047.84;5087418;28;20032;-96
2021/05/20 10:00:59;;;;;;;0.50;0.50;;;;;;;26.28;23.30;98055.63;5086853;28;20115;-96
2021/05/20 10:03:27;;;;;;;1.17;0.47;;;;;;;26.30;22.75;98067.22;5089098;28;20123;-96
2021/05/20 10:06:01;;;;;;;1.13;0.40;;;;;;;25.93;22.93;98062.31;5087746;28;20032;-96
2021/05/20 10:08:32;;;;;;;0.60;0.50;;;;;;;26.81;22.56;98055.97;5084752;28;20492;-96
2021/05/20 10:11:01;;;;;;;0.68;0.30;;;;;;;27.33;21.53;98054.16;5083376;28;20111;-96
2021/05/20 10:13:30;;;;;;;0.40;0.40;;;;;;;27.50;21.52;98060.44;5089168;28;20024;-96
2021/05/20 10:15:58;;;;;;;0.70;0.43;;;;;;;27.98;20.82;98054.16;5091656;28;20101;-96
2021/05/20 10:18:26;;;;;;;0.82;0.40;;;;;;;28.19;20.59;98054.66;5084818;28;20127;-96
2021/05/20 10:20:55;;;;;;;0.45;0.40;;;;;;;27.88;20.74;98054.59;5089782;28;20028;-96
2021/05/20 10:23:23;;;;;;;0.85;0.30;;;;;;;28.70;20.48;98053.81;5086929;28;20028;-96
2021/05/20 10:25:52;;;;;;;0.30;0.30;;;;;;;28.65;20.18;98057.22;5084800;28;20550;-96
2021/05/20 10:28:19;;;;;;;0.43;0.40;;;;;;;28.21;21.18;98052.16;5085262;28;22657;-96
2021/05/20 10:30:51;;;;;;;0.38;0.38;;;;;;;28.76;20.94;98042.66;5090177;28;20391;-96
2021/05/20 10:33:23;;;;;;;0.38;0.35;;;;;;;27.87;21.02;98050.97;5082750;28;20138;-95
2021/05/20 10:35:51;;;;;;;0.50;0.30;;;;;;;29.04;21.14;98049.94;5089101;28;20032;-96
2021/05/20 10:38:29;;;;;;;0.52;0.40;;;;;;;29.08;21.12;98049.81;5091052;28;20028;-96
2021/05/20 10:41:17;;;;;;;1.10;0.32;;;;;;;28.68;20.00;98050.63;5088055;28;20031;-95
2021/05/20 10:43:45;;;;;;;0.50;0.30;;;;;;;29.86;19.24;98050.78;5093645;28;20026;-95
2021/05/20 10:46:18;;;;;;;0.43;0.40;;;;;;;27.46;21.41;98042.84;5090850;28;20040;-95
2021/05/20 10:48:51;;;;;;;0.20;0.20;;;;;;;28.34;20.19;98039.50;5088048;28;20068;-93
2021/05/20 10:51:23;;;;;;;0.70;0.30;;;;;;;28.34;19.01;98047.19;5085870;28;20051;-94
2021/05/20 10:53:56;;;;;;;0.30;0.30;;;;;;;29.35;19.16;98041.38;5086647;28;20025;-95
2021/05/20 10:56:22;;;;;;;2.20;0.25;;;;;;;27.84;19.80;98045.47;5090828;28;20040;-92
2021/05/20 10:58:52;;;;;;;1.38;0.35;;;;;;;29.36;18.37;98040.09;5082992;28;20140;-95
2021/05/20 11:01:21;;;;;;;0.20;0.20;;;;;;;28.53;19.31;98038.31;5083930;28;20057;-96
2021/05/20 11:03:50;;;;;;;0.90;0.30;;;;;;;27.53;19.27;98038.97;5090676;28;20115;-93
2021/05/20 11:06:18;;;;;;;2.95;0.40;;;;;;;25.78;21.77;98033.03;5085340;28;20034;-95
2021/05/20 11:08:47;;;;;;;0.43;0.20;;;;;;;26.96;21.79;98018.41;5082966;28;20032;-95
2021/05/20 11:11:32;;;;;;;0.68;0.35;;;;;;;29.38;17.77;98018.56;5084031;28;20055;-95
2021/05/20 11:13:59;;;;;;;0.38;0.30;;;;;;;29.42;18.13;98024.06;5082925;28;20410;-93
2021/05/20 11:16:36;;;;;;;0.47;0.22;;;;;;;28.05;17.74;98020.06;5079548;28;20032;-93
2021/05/20 11:19:28;;;;;;;0.28;0.20;;;;;;;27.27;17.98;98024.97;5081164;28;20040;-94
2021/05/20 11:22:07;;;;;;;0.20;0.20;;;;;;;26.32;18.44;98022.56;5080244;28;20032;-95
2021/05/20 11:24:42;;;;;;;0.15;0.15;;;;;;;26.48;18.90;98016.78;5082845;28;20395;-92
2021/05/20 11:27:19;;;;;;;0.10;0.10;;;;;;;27.00;18.05;98023.94;5085572;28;20032;-93
2021/05/20 11:29:48;;;;;;;1.20;0.20;;;;;;;27.03;19.08;98008.91;5087466;28;20236;-93
2021/05/20 11:37:37;;;;;;;0.82;0.20;;;;;;;28.28;16.49;98021.59;5080320;28;20036;-92
2021/05/20 11:40:05;;;;;;;1.40;0.28;;;;;;;28.01;17.00;98032.75;5078608;28;20033;-92
2021/05/20 11:42:32;;;;;;;0.20;0.20;;;;;;;27.95;17.93;98024.06;5088149;28;20039;-94
2021/05/20 11:45:00;;;;;;;0.10;0.10;;;;;;;27.20;17.93;98033.69;5085261;28;20040;-92